sensor_id;sensor_type;location;lat;lon;timestamp;temperature;humidity
12981;DHT22;6555;50.468;8.480;2022-12-10T00:03:49;3.50;61.90
12981;DHT22;6555;50.468;8.480;2022-12-10T00:08:52;3.50;61.90
12981;DHT22;6555;50.468;8.480;2022-12-10T00:13:57;3.50;61.90
12981;DHT22;6555;50.468;8.480;2022-12-10T00:19:01;3.40;61.90
12981;DHT22;6555;50.468;8.480;2022-12-10T00:24:05;3.40;62.00
12981;DHT22;6555;50.468;8.480;2022-12-10T00:29:11;3.40;62.10
12981;DHT22;6555;50.468;8.480;2022-12-10T00:34:14;3.50;62.40
12981;DHT22;6555;50.468;8.480;2022-12-10T00:39:19;3.50;62.30
12981;DHT22;6555;50.468;8.480;2022-12-10T00:44:24;3.60;62.20
12981;DHT22;6555;50.468;8.480;2022-12-10T00:49:27;3.60;62.20
12981;DHT22;6555;50.468;8.480;2022-12-10T00:54:29;3.60;62.20
12981;DHT22;6555;50.468;8.480;2022-12-10T00:59:34;3.60;62.00
12981;DHT22;6555;50.468;8.480;2022-12-10T01:04:37;3.70;62.10
12981;DHT22;6555;50.468;8.480;2022-12-10T01:09:42;3.70;62.20
12981;DHT22;6555;50.468;8.480;2022-12-10T01:14:47;3.70;62.10
12981;DHT22;6555;50.468;8.480;2022-12-10T01:19:50;3.70;62.10
12981;DHT22;6555;50.468;8.480;2022-12-10T01:24:54;3.70;62.10
12981;DHT22;6555;50.468;8.480;2022-12-10T01:29:58;3.70;62.10
12981;DHT22;6555;50.468;8.480;2022-12-10T01:35:01;3.70;62.00
12981;DHT22;6555;50.468;8.480;2022-12-10T01:40:05;3.70;61.80
12981;DHT22;6555;50.468;8.480;2022-12-10T01:45:12;3.70;61.70
12981;DHT22;6555;50.468;8.480;2022-12-10T01:50:15;3.60;61.40
12981;DHT22;6555;50.468;8.480;2022-12-10T01:55:41;3.60;61.50
12981;DHT22;6555;50.468;8.480;2022-12-10T02:00:54;3.60;61.40
12981;DHT22;6555;50.468;8.480;2022-12-10T02:06:04;3.50;61.60
12981;DHT22;6555;50.468;8.480;2022-12-10T02:11:15;3.50;61.70
12981;DHT22;6555;50.468;8.480;2022-12-10T02:16:26;3.50;61.70
12981;DHT22;6555;50.468;8.480;2022-12-10T02:21:36;3.50;61.80
12981;DHT22;6555;50.468;8.480;2022-12-10T02:26:44;3.50;61.90
12981;DHT22;6555;50.468;8.480;2022-12-10T02:31:53;3.50;62.00
12981;DHT22;6555;50.468;8.480;2022-12-10T02:37:01;3.50;61.90
12981;DHT22;6555;50.468;8.480;2022-12-10T02:42:09;3.50;61.80
12981;DHT22;6555;50.468;8.480;2022-12-10T02:47:16;3.50;61.80
12981;DHT22;6555;50.468;8.480;2022-12-10T02:52:23;3.50;61.80
12981;DHT22;6555;50.468;8.480;2022-12-10T02:57:32;3.50;61.80
12981;DHT22;6555;50.468;8.480;2022-12-10T03:08:16;3.50;61.60
12981;DHT22;6555;50.468;8.480;2022-12-10T03:13:23;3.40;61.50
12981;DHT22;6555;50.468;8.480;2022-12-10T03:18:31;3.40;61.50
12981;DHT22;6555;50.468;8.480;2022-12-10T03:23:39;3.30;61.60
12981;DHT22;6555;50.468;8.480;2022-12-10T03:28:48;3.30;61.70
12981;DHT22;6555;50.468;8.480;2022-12-10T03:33:54;3.30;61.70
12981;DHT22;6555;50.468;8.480;2022-12-10T03:38:57;3.30;61.80
12981;DHT22;6555;50.468;8.480;2022-12-10T03:44:02;3.30;61.80
12981;DHT22;6555;50.468;8.480;2022-12-10T03:49:06;3.30;61.80
12981;DHT22;6555;50.468;8.480;2022-12-10T03:54:09;3.30;61.90
12981;DHT22;6555;50.468;8.480;2022-12-10T03:59:12;3.40;62.00
12981;DHT22;6555;50.468;8.480;2022-12-10T04:04:16;3.40;62.00
12981;DHT22;6555;50.468;8.480;2022-12-10T04:09:20;3.50;62.20
12981;DHT22;6555;50.468;8.480;2022-12-10T04:14:23;3.50;62.20
12981;DHT22;6555;50.468;8.480;2022-12-10T04:19:45;3.60;62.20
12981;DHT22;6555;50.468;8.480;2022-12-10T04:24:48;3.60;62.10
12981;DHT22;6555;50.468;8.480;2022-12-10T04:30:23;3.70;62.10
12981;DHT22;6555;50.468;8.480;2022-12-10T04:35:27;3.70;62.00
12981;DHT22;6555;50.468;8.480;2022-12-10T04:40:30;3.70;61.90
12981;DHT22;6555;50.468;8.480;2022-12-10T04:45:34;3.70;62.00
12981;DHT22;6555;50.468;8.480;2022-12-10T04:50:41;3.70;61.90
12981;DHT22;6555;50.468;8.480;2022-12-10T04:55:44;3.70;61.90
12981;DHT22;6555;50.468;8.480;2022-12-10T05:00:47;3.80;61.80
12981;DHT22;6555;50.468;8.480;2022-12-10T05:05:51;3.70;61.80
12981;DHT22;6555;50.468;8.480;2022-12-10T05:10:54;3.70;61.70
12981;DHT22;6555;50.468;8.480;2022-12-10T05:16:00;3.70;61.80
12981;DHT22;6555;50.468;8.480;2022-12-10T05:21:06;3.70;61.80
12981;DHT22;6555;50.468;8.480;2022-12-10T05:26:11;3.70;61.80
12981;DHT22;6555;50.468;8.480;2022-12-10T05:31:16;3.70;61.70
12981;DHT22;6555;50.468;8.480;2022-12-10T05:36:23;3.70;61.70
12981;DHT22;6555;50.468;8.480;2022-12-10T05:41:28;3.70;61.70
12981;DHT22;6555;50.468;8.480;2022-12-10T05:46:33;3.70;61.80
12981;DHT22;6555;50.468;8.480;2022-12-10T05:51:38;3.70;61.80
12981;DHT22;6555;50.468;8.480;2022-12-10T05:56:42;3.60;62.50
12981;DHT22;6555;50.468;8.480;2022-12-10T06:01:47;3.70;61.90
12981;DHT22;6555;50.468;8.480;2022-12-10T06:06:51;3.70;61.70
12981;DHT22;6555;50.468;8.480;2022-12-10T06:11:54;3.70;61.60
12981;DHT22;6555;50.468;8.480;2022-12-10T06:16:57;3.60;61.50
12981;DHT22;6555;50.468;8.480;2022-12-10T06:22:02;3.60;61.50
12981;DHT22;6555;50.468;8.480;2022-12-10T06:27:04;3.60;61.70
12981;DHT22;6555;50.468;8.480;2022-12-10T06:32:08;3.60;61.80
12981;DHT22;6555;50.468;8.480;2022-12-10T06:37:12;3.60;61.80
12981;DHT22;6555;50.468;8.480;2022-12-10T06:42:15;3.60;61.80
12981;DHT22;6555;50.468;8.480;2022-12-10T06:47:18;3.60;61.80
12981;DHT22;6555;50.468;8.480;2022-12-10T06:52:22;3.60;61.70
12981;DHT22;6555;50.468;8.480;2022-12-10T06:57:25;3.60;61.50
12981;DHT22;6555;50.468;8.480;2022-12-10T07:02:28;3.60;61.40
12981;DHT22;6555;50.468;8.480;2022-12-10T07:07:34;3.50;61.40
12981;DHT22;6555;50.468;8.480;2022-12-10T07:12:37;3.50;61.50
12981;DHT22;6555;50.468;8.480;2022-12-10T07:17:40;3.50;61.60
12981;DHT22;6555;50.468;8.480;2022-12-10T07:22:49;3.50;61.60
12981;DHT22;6555;50.468;8.480;2022-12-10T07:27:52;3.40;61.50
12981;DHT22;6555;50.468;8.480;2022-12-10T07:32:58;3.40;61.50
12981;DHT22;6555;50.468;8.480;2022-12-10T07:38:03;3.40;61.60
12981;DHT22;6555;50.468;8.480;2022-12-10T07:43:06;3.40;61.60
12981;DHT22;6555;50.468;8.480;2022-12-10T07:48:09;3.40;61.70
12981;DHT22;6555;50.468;8.480;2022-12-10T07:53:14;3.40;61.70
12981;DHT22;6555;50.468;8.480;2022-12-10T07:58:17;3.40;61.60
12981;DHT22;6555;50.468;8.480;2022-12-10T08:03:20;3.40;61.60
12981;DHT22;6555;50.468;8.480;2022-12-10T08:08:24;3.40;61.70
12981;DHT22;6555;50.468;8.480;2022-12-10T08:13:28;3.40;61.50
12981;DHT22;6555;50.468;8.480;2022-12-10T08:18:32;3.40;61.50
12981;DHT22;6555;50.468;8.480;2022-12-10T08:23:36;3.40;61.40
12981;DHT22;6555;50.468;8.480;2022-12-10T08:28:39;3.40;61.50
12981;DHT22;6555;50.468;8.480;2022-12-10T08:33:43;3.30;61.50
12981;DHT22;6555;50.468;8.480;2022-12-10T08:38:47;3.30;61.70
12981;DHT22;6555;50.468;8.480;2022-12-10T08:43:51;3.30;61.70
12981;DHT22;6555;50.468;8.480;2022-12-10T08:48:55;3.30;61.60
12981;DHT22;6555;50.468;8.480;2022-12-10T08:53:59;3.30;61.40
12981;DHT22;6555;50.468;8.480;2022-12-10T08:59:02;3.30;61.40
12981;DHT22;6555;50.468;8.480;2022-12-10T09:04:05;3.30;61.40
12981;DHT22;6555;50.468;8.480;2022-12-10T09:09:09;3.30;61.50
12981;DHT22;6555;50.468;8.480;2022-12-10T09:14:12;3.30;61.60
12981;DHT22;6555;50.468;8.480;2022-12-10T09:19:16;3.30;61.60
12981;DHT22;6555;50.468;8.480;2022-12-10T09:24:23;3.30;61.70
12981;DHT22;6555;50.468;8.480;2022-12-10T09:29:26;3.30;61.70
12981;DHT22;6555;50.468;8.480;2022-12-10T09:34:30;3.40;61.70
12981;DHT22;6555;50.468;8.480;2022-12-10T09:39:34;3.40;61.80
12981;DHT22;6555;50.468;8.480;2022-12-10T09:44:48;3.40;61.70
12981;DHT22;6555;50.468;8.480;2022-12-10T09:50:03;3.40;61.50
12981;DHT22;6555;50.468;8.480;2022-12-10T09:55:17;3.40;61.60
12981;DHT22;6555;50.468;8.480;2022-12-10T10:00:25;3.40;61.70
12981;DHT22;6555;50.468;8.480;2022-12-10T10:05:30;3.50;61.80
12981;DHT22;6555;50.468;8.480;2022-12-10T10:10:37;3.50;61.70
12981;DHT22;6555;50.468;8.480;2022-12-10T10:15:43;3.50;61.60
12981;DHT22;6555;50.468;8.480;2022-12-10T10:20:47;3.50;61.70
12981;DHT22;6555;50.468;8.480;2022-12-10T10:25:51;3.50;61.70
12981;DHT22;6555;50.468;8.480;2022-12-10T10:30:54;3.50;62.40
12981;DHT22;6555;50.468;8.480;2022-12-10T10:35:58;3.60;61.70
12981;DHT22;6555;50.468;8.480;2022-12-10T10:41:04;3.60;61.80
12981;DHT22;6555;50.468;8.480;2022-12-10T10:46:12;3.60;61.80
12981;DHT22;6555;50.468;8.480;2022-12-10T10:51:20;3.70;61.70
12981;DHT22;6555;50.468;8.480;2022-12-10T10:56:29;3.70;61.50
12981;DHT22;6555;50.468;8.480;2022-12-10T11:01:45;3.70;61.60
12981;DHT22;6555;50.468;8.480;2022-12-10T11:06:50;3.70;61.60
12981;DHT22;6555;50.468;8.480;2022-12-10T11:12:00;3.70;61.80
12981;DHT22;6555;50.468;8.480;2022-12-10T11:17:17;3.70;61.80
12981;DHT22;6555;50.468;8.480;2022-12-10T11:22:22;3.80;61.60
12981;DHT22;6555;50.468;8.480;2022-12-10T11:27:44;3.80;61.60
12981;DHT22;6555;50.468;8.480;2022-12-10T11:33:11;3.80;61.40
12981;DHT22;6555;50.468;8.480;2022-12-10T11:38:23;3.80;61.60
12981;DHT22;6555;50.468;8.480;2022-12-10T11:43:46;3.80;61.70
12981;DHT22;6555;50.468;8.480;2022-12-10T11:49:03;3.90;61.80
12981;DHT22;6555;50.468;8.480;2022-12-10T11:54:25;3.90;61.70
12981;DHT22;6555;50.468;8.480;2022-12-10T11:59:39;3.90;61.60
12981;DHT22;6555;50.468;8.480;2022-12-10T12:05:21;3.90;61.60
12981;DHT22;6555;50.468;8.480;2022-12-10T12:10:52;4.00;61.50
12981;DHT22;6555;50.468;8.480;2022-12-10T12:16:03;4.00;61.30
12981;DHT22;6555;50.468;8.480;2022-12-10T12:21:11;4.00;61.30
12981;DHT22;6555;50.468;8.480;2022-12-10T12:26:23;4.00;61.40
12981;DHT22;6555;50.468;8.480;2022-12-10T12:31:35;4.00;61.50
12981;DHT22;6555;50.468;8.480;2022-12-10T12:36:41;4.00;61.50
12981;DHT22;6555;50.468;8.480;2022-12-10T12:41:53;4.00;61.50
12981;DHT22;6555;50.468;8.480;2022-12-10T12:47:19;4.00;61.50
12981;DHT22;6555;50.468;8.480;2022-12-10T12:52:30;4.00;61.10
12981;DHT22;6555;50.468;8.480;2022-12-10T12:57:43;4.00;61.20
12981;DHT22;6555;50.468;8.480;2022-12-10T13:02:59;4.00;61.20
12981;DHT22;6555;50.468;8.480;2022-12-10T13:08:27;3.90;60.90
12981;DHT22;6555;50.468;8.480;2022-12-10T13:13:32;3.90;61.00
12981;DHT22;6555;50.468;8.480;2022-12-10T13:18:38;3.90;61.40
12981;DHT22;6555;50.468;8.480;2022-12-10T13:23:48;3.90;61.30
12981;DHT22;6555;50.468;8.480;2022-12-10T13:28:56;3.90;61.00
12981;DHT22;6555;50.468;8.480;2022-12-10T13:34:32;3.90;61.20
12981;DHT22;6555;50.468;8.480;2022-12-10T13:39:43;3.90;61.20
12981;DHT22;6555;50.468;8.480;2022-12-10T13:44:50;3.90;61.20
12981;DHT22;6555;50.468;8.480;2022-12-10T13:50:05;3.90;61.10
12981;DHT22;6555;50.468;8.480;2022-12-10T13:55:22;3.80;61.60
12981;DHT22;6555;50.468;8.480;2022-12-10T14:00:33;3.80;60.90
12981;DHT22;6555;50.468;8.480;2022-12-10T14:05:52;3.80;61.00
12981;DHT22;6555;50.468;8.480;2022-12-10T14:10:59;3.80;61.00
12981;DHT22;6555;50.468;8.480;2022-12-10T14:16:03;3.80;61.10
12981;DHT22;6555;50.468;8.480;2022-12-10T14:21:14;3.80;61.00
12981;DHT22;6555;50.468;8.480;2022-12-10T14:26:19;3.80;61.00
12981;DHT22;6555;50.468;8.480;2022-12-10T14:31:26;3.80;61.20
12981;DHT22;6555;50.468;8.480;2022-12-10T14:36:36;3.80;61.10
12981;DHT22;6555;50.468;8.480;2022-12-10T14:41:42;3.90;61.20
12981;DHT22;6555;50.468;8.480;2022-12-10T14:46:51;3.90;61.30
12981;DHT22;6555;50.468;8.480;2022-12-10T14:51:57;3.90;61.40
12981;DHT22;6555;50.468;8.480;2022-12-10T14:57:03;3.90;61.30
12981;DHT22;6555;50.468;8.480;2022-12-10T15:02:15;3.90;61.00
12981;DHT22;6555;50.468;8.480;2022-12-10T15:07:23;3.90;60.70
12981;DHT22;6555;50.468;8.480;2022-12-10T15:12:30;3.90;60.50
12981;DHT22;6555;50.468;8.480;2022-12-10T15:17:37;3.80;60.40
12981;DHT22;6555;50.468;8.480;2022-12-10T15:22:41;3.70;60.70
12981;DHT22;6555;50.468;8.480;2022-12-10T15:27:56;3.70;60.80
12981;DHT22;6555;50.468;8.480;2022-12-10T15:32:59;3.70;60.70
12981;DHT22;6555;50.468;8.480;2022-12-10T15:38:11;3.60;60.70
12981;DHT22;6555;50.468;8.480;2022-12-10T15:43:26;3.60;60.60
12981;DHT22;6555;50.468;8.480;2022-12-10T15:48:31;3.60;60.50
12981;DHT22;6555;50.468;8.480;2022-12-10T15:53:37;3.50;60.70
12981;DHT22;6555;50.468;8.480;2022-12-10T15:58:41;3.60;60.60
12981;DHT22;6555;50.468;8.480;2022-12-10T16:03:45;3.50;60.60
12981;DHT22;6555;50.468;8.480;2022-12-10T16:08:50;3.40;60.60
12981;DHT22;6555;50.468;8.480;2022-12-10T16:13:54;3.40;60.50
12981;DHT22;6555;50.468;8.480;2022-12-10T16:18:58;3.40;60.50
12981;DHT22;6555;50.468;8.480;2022-12-10T16:24:03;3.40;60.70
12981;DHT22;6555;50.468;8.480;2022-12-10T16:29:08;3.40;60.70
12981;DHT22;6555;50.468;8.480;2022-12-10T16:34:12;3.30;61.40
12981;DHT22;6555;50.468;8.480;2022-12-10T16:39:16;3.30;60.70
12981;DHT22;6555;50.468;8.480;2022-12-10T16:44:19;3.30;60.70
12981;DHT22;6555;50.468;8.480;2022-12-10T16:49:22;3.30;60.70
12981;DHT22;6555;50.468;8.480;2022-12-10T16:54:26;3.30;60.60
12981;DHT22;6555;50.468;8.480;2022-12-10T16:59:29;3.30;60.60
12981;DHT22;6555;50.468;8.480;2022-12-10T17:04:32;3.20;61.20
12981;DHT22;6555;50.468;8.480;2022-12-10T17:09:39;3.20;60.50
12981;DHT22;6555;50.468;8.480;2022-12-10T17:14:43;3.20;60.40
12981;DHT22;6555;50.468;8.480;2022-12-10T17:19:48;3.10;60.50
12981;DHT22;6555;50.468;8.480;2022-12-10T17:24:52;3.10;60.50
12981;DHT22;6555;50.468;8.480;2022-12-10T17:29:55;3.10;60.50
12981;DHT22;6555;50.468;8.480;2022-12-10T17:34:58;3.00;60.50
12981;DHT22;6555;50.468;8.480;2022-12-10T17:40:10;3.00;60.50
12981;DHT22;6555;50.468;8.480;2022-12-10T17:45:16;3.00;60.50
12981;DHT22;6555;50.468;8.480;2022-12-10T17:50:26;3.00;60.50
12981;DHT22;6555;50.468;8.480;2022-12-10T17:55:34;3.00;60.50
12981;DHT22;6555;50.468;8.480;2022-12-10T18:00:39;3.00;60.50
12981;DHT22;6555;50.468;8.480;2022-12-10T18:05:43;2.90;60.50
12981;DHT22;6555;50.468;8.480;2022-12-10T18:10:49;2.90;60.40
12981;DHT22;6555;50.468;8.480;2022-12-10T18:15:52;2.90;60.40
12981;DHT22;6555;50.468;8.480;2022-12-10T18:20:55;2.80;60.30
12981;DHT22;6555;50.468;8.480;2022-12-10T18:26:00;2.80;60.30
12981;DHT22;6555;50.468;8.480;2022-12-10T18:31:04;2.80;60.20
12981;DHT22;6555;50.468;8.480;2022-12-10T18:36:10;2.70;60.20
12981;DHT22;6555;50.468;8.480;2022-12-10T18:41:24;2.70;60.20
12981;DHT22;6555;50.468;8.480;2022-12-10T18:46:28;2.70;60.30
12981;DHT22;6555;50.468;8.480;2022-12-10T18:51:34;2.60;60.20
12981;DHT22;6555;50.468;8.480;2022-12-10T18:56:38;2.60;60.10
12981;DHT22;6555;50.468;8.480;2022-12-10T19:01:41;2.60;60.10
12981;DHT22;6555;50.468;8.480;2022-12-10T19:06:44;2.50;60.20
12981;DHT22;6555;50.468;8.480;2022-12-10T19:11:49;2.50;60.30
12981;DHT22;6555;50.468;8.480;2022-12-10T19:16:52;2.40;60.20
12981;DHT22;6555;50.468;8.480;2022-12-10T19:21:57;2.40;60.10
12981;DHT22;6555;50.468;8.480;2022-12-10T19:27:01;2.40;60.00
12981;DHT22;6555;50.468;8.480;2022-12-10T19:32:05;2.30;59.90
12981;DHT22;6555;50.468;8.480;2022-12-10T19:37:09;2.30;60.00
12981;DHT22;6555;50.468;8.480;2022-12-10T19:42:13;2.20;59.80
12981;DHT22;6555;50.468;8.480;2022-12-10T19:47:16;2.20;59.90
12981;DHT22;6555;50.468;8.480;2022-12-10T19:52:19;2.10;59.90
12981;DHT22;6555;50.468;8.480;2022-12-10T19:57:26;2.10;60.10
12981;DHT22;6555;50.468;8.480;2022-12-10T20:02:29;2.00;59.90
12981;DHT22;6555;50.468;8.480;2022-12-10T20:07:33;2.00;59.90
12981;DHT22;6555;50.468;8.480;2022-12-10T20:12:38;1.90;59.70
12981;DHT22;6555;50.468;8.480;2022-12-10T20:17:42;1.90;59.70
12981;DHT22;6555;50.468;8.480;2022-12-10T20:22:45;1.80;59.70
12981;DHT22;6555;50.468;8.480;2022-12-10T20:27:49;1.70;59.80
12981;DHT22;6555;50.468;8.480;2022-12-10T20:32:53;1.70;60.00
12981;DHT22;6555;50.468;8.480;2022-12-10T20:37:56;1.70;60.30
12981;DHT22;6555;50.468;8.480;2022-12-10T20:43:00;1.70;60.40
12981;DHT22;6555;50.468;8.480;2022-12-10T20:48:04;1.80;60.30
12981;DHT22;6555;50.468;8.480;2022-12-10T20:53:06;1.80;60.20
12981;DHT22;6555;50.468;8.480;2022-12-10T20:58:11;1.80;60.10
12981;DHT22;6555;50.468;8.480;2022-12-10T21:03:14;1.80;60.00
12981;DHT22;6555;50.468;8.480;2022-12-10T21:08:17;1.80;60.00
12981;DHT22;6555;50.468;8.480;2022-12-10T21:13:27;1.80;60.00
12981;DHT22;6555;50.468;8.480;2022-12-10T21:18:31;1.70;59.90
12981;DHT22;6555;50.468;8.480;2022-12-10T21:23:34;1.60;59.90
12981;DHT22;6555;50.468;8.480;2022-12-10T21:28:39;1.60;59.80
12981;DHT22;6555;50.468;8.480;2022-12-10T21:33:42;1.60;59.90
12981;DHT22;6555;50.468;8.480;2022-12-10T21:38:45;1.50;60.00
12981;DHT22;6555;50.468;8.480;2022-12-10T21:43:50;1.50;60.00
12981;DHT22;6555;50.468;8.480;2022-12-10T21:48:53;1.50;60.00
12981;DHT22;6555;50.468;8.480;2022-12-10T21:53:58;1.40;59.90
12981;DHT22;6555;50.468;8.480;2022-12-10T21:59:03;1.40;60.00
12981;DHT22;6555;50.468;8.480;2022-12-10T22:04:06;1.40;59.90
12981;DHT22;6555;50.468;8.480;2022-12-10T22:09:16;1.40;60.00
12981;DHT22;6555;50.468;8.480;2022-12-10T22:14:20;1.40;60.00
12981;DHT22;6555;50.468;8.480;2022-12-10T22:19:24;1.30;60.00
12981;DHT22;6555;50.468;8.480;2022-12-10T22:24:29;1.30;60.00
12981;DHT22;6555;50.468;8.480;2022-12-10T22:29:34;1.30;60.10
12981;DHT22;6555;50.468;8.480;2022-12-10T22:34:37;1.20;60.10
12981;DHT22;6555;50.468;8.480;2022-12-10T22:39:46;1.30;60.20
12981;DHT22;6555;50.468;8.480;2022-12-10T22:44:50;1.30;60.20
12981;DHT22;6555;50.468;8.480;2022-12-10T22:49:53;1.30;60.20
12981;DHT22;6555;50.468;8.480;2022-12-10T22:54:57;1.30;60.20
12981;DHT22;6555;50.468;8.480;2022-12-10T23:00:06;1.20;60.10
12981;DHT22;6555;50.468;8.480;2022-12-10T23:05:12;1.20;60.10
12981;DHT22;6555;50.468;8.480;2022-12-10T23:10:16;1.20;60.10
12981;DHT22;6555;50.468;8.480;2022-12-10T23:15:20;1.10;60.00
12981;DHT22;6555;50.468;8.480;2022-12-10T23:20:24;1.10;60.20
12981;DHT22;6555;50.468;8.480;2022-12-10T23:25:27;1.10;60.10
12981;DHT22;6555;50.468;8.480;2022-12-10T23:30:31;1.10;60.20
12981;DHT22;6555;50.468;8.480;2022-12-10T23:35:38;1.10;60.20
12981;DHT22;6555;50.468;8.480;2022-12-10T23:40:43;1.10;60.30
12981;DHT22;6555;50.468;8.480;2022-12-10T23:45:47;1.10;60.30
12981;DHT22;6555;50.468;8.480;2022-12-10T23:50:50;1.00;60.00
12981;DHT22;6555;50.468;8.480;2022-12-10T23:55:53;1.00;60.10
